createdAt,value
2023-03-03T00:01:16.002Z,0.42
2023-03-03T00:03:45.260Z,0.43
2023-03-03T00:06:15.972Z,0.41
2023-03-03T00:08:43.222Z,0.32
2023-03-03T00:11:12.932Z,0.27
2023-03-03T00:13:49.614Z,0.27
2023-03-03T00:16:44.117Z,0.29
2023-03-03T00:19:18.425Z,0.26
2023-03-03T00:21:51.089Z,0.23
2023-03-03T00:24:22.267Z,0.27
2023-03-03T00:26:57.161Z,0.30
2023-03-03T00:30:02.581Z,0.31
2023-03-03T00:32:47.425Z,0.25
2023-03-03T00:35:39.598Z,0.16
2023-03-03T00:38:18.465Z,-0.00
2023-03-03T00:40:47.296Z,-0.09
2023-03-03T00:43:28.960Z,-0.15
2023-03-03T00:45:57.430Z,-0.23
2023-03-03T00:48:42.384Z,-0.28
2023-03-03T00:51:26.903Z,-0.28
2023-03-03T00:53:54.649Z,-0.26
2023-03-03T00:56:22.013Z,-0.22
2023-03-03T00:58:54.202Z,-0.17
2023-03-03T01:01:52.080Z,-0.16
2023-03-03T01:04:22.687Z,-0.20
2023-03-03T01:06:50.453Z,-0.18
2023-03-03T01:09:20.207Z,-0.20
2023-03-03T01:11:47.415Z,-0.19
2023-03-03T01:14:14.814Z,-0.20
2023-03-03T01:16:42.664Z,-0.21
2023-03-03T01:19:14.263Z,-0.19
2023-03-03T01:21:46.775Z,-0.18
2023-03-03T01:24:13.894Z,-0.17
2023-03-03T01:26:43.731Z,-0.16
2023-03-03T01:29:14.317Z,-0.14
2023-03-03T01:31:41.557Z,-0.11
2023-03-03T01:34:09.118Z,-0.07
2023-03-03T01:36:37.482Z,-0.08
2023-03-03T01:39:06.072Z,-0.13
2023-03-03T01:41:39.009Z,-0.18
2023-03-03T01:44:06.489Z,-0.24
2023-03-03T01:47:08.199Z,-0.30
2023-03-03T01:49:42.399Z,-0.38
2023-03-03T01:52:25.760Z,-0.42
2023-03-03T01:55:00.287Z,-0.43
2023-03-03T01:57:35.256Z,-0.39
2023-03-03T02:00:08.124Z,-0.40
2023-03-03T02:02:38.620Z,-0.43
2023-03-03T02:05:07.079Z,-0.41
2023-03-03T02:07:43.037Z,-0.38
2023-03-03T02:10:16.940Z,-0.35
2023-03-03T02:12:53.727Z,-0.33
2023-03-03T02:15:23.860Z,-0.33
2023-03-03T02:17:55.876Z,-0.30
2023-03-03T02:20:52.503Z,-0.24
2023-03-03T02:23:38.639Z,-0.18
2023-03-03T02:26:23.961Z,-0.12
2023-03-03T02:28:53.178Z,-0.09
2023-03-03T02:31:26.039Z,-0.03
2023-03-03T02:33:54.996Z,0.02
2023-03-03T02:36:36.639Z,0.04
2023-03-03T02:39:18.138Z,0.04
2023-03-03T02:42:02.954Z,0.05
2023-03-03T02:44:32.157Z,0.10
2023-03-03T02:47:00.167Z,0.14
2023-03-03T02:49:34.475Z,0.18
2023-03-03T02:52:03.259Z,0.22
2023-03-03T02:54:33.440Z,0.28
2023-03-03T02:57:01.168Z,0.31
2023-03-03T02:59:28.478Z,0.35
2023-03-03T03:01:55.638Z,0.36
2023-03-03T03:04:25.292Z,0.34
2023-03-03T03:06:53.580Z,0.31
2023-03-03T03:09:25.706Z,0.29
2023-03-03T03:11:53.186Z,0.29
2023-03-03T03:14:21.024Z,0.28
2023-03-03T03:16:51.108Z,0.28
2023-03-03T03:19:18.624Z,0.32
2023-03-03T03:21:45.754Z,0.35
2023-03-03T03:24:13.108Z,0.35
2023-03-03T03:26:40.243Z,0.32
2023-03-03T03:29:10.944Z,0.29
2023-03-03T03:31:38.830Z,0.29
2023-03-03T03:34:05.879Z,0.30
2023-03-03T03:36:41.446Z,0.31
2023-03-03T03:39:11.555Z,0.35
2023-03-03T03:41:44.416Z,0.38
2023-03-03T03:44:11.740Z,0.42
2023-03-03T03:46:39.258Z,0.47
2023-03-03T03:49:09.030Z,0.49
2023-03-03T03:51:38.318Z,0.49
2023-03-03T03:54:05.500Z,0.47
2023-03-03T03:56:35.697Z,0.44
2023-03-03T03:59:03.021Z,0.42
2023-03-03T04:01:32.998Z,0.38
2023-03-03T04:04:16.767Z,0.34
2023-03-03T04:06:52.868Z,0.30
2023-03-03T04:09:20.104Z,0.31
2023-03-03T04:11:46.915Z,0.33
2023-03-03T04:14:23.768Z,0.34
2023-03-03T04:16:50.603Z,0.35
2023-03-03T04:19:31.118Z,0.32
2023-03-03T04:22:00.606Z,0.29
2023-03-03T04:24:32.959Z,0.31
2023-03-03T04:27:06.010Z,0.32
2023-03-03T04:29:36.490Z,0.29
2023-03-03T04:32:03.776Z,0.28
2023-03-03T04:34:33.150Z,0.28
2023-03-03T04:37:06.753Z,0.31
2023-03-03T04:39:36.715Z,0.33
2023-03-03T04:42:04.238Z,0.36
2023-03-03T04:44:41.494Z,0.39
2023-03-03T04:47:10.805Z,0.38
2023-03-03T04:49:38.458Z,0.40
2023-03-03T04:52:07.743Z,0.40
2023-03-03T04:54:35.153Z,0.40
2023-03-03T04:57:02.121Z,0.41
2023-03-03T04:59:29.839Z,0.45
2023-03-03T05:01:58.000Z,0.49
2023-03-03T05:04:25.716Z,0.54
2023-03-03T05:06:53.087Z,0.54
2023-03-03T05:09:20.234Z,0.53
2023-03-03T05:11:47.430Z,0.50
2023-03-03T05:14:14.720Z,0.51
2023-03-03T05:16:51.372Z,0.54
2023-03-03T05:19:18.681Z,0.58
2023-03-03T05:21:47.190Z,0.61
2023-03-03T05:24:14.679Z,0.62
2023-03-03T05:26:45.445Z,0.61
2023-03-03T05:29:19.802Z,0.59
2023-03-03T05:31:46.804Z,0.62
2023-03-03T05:34:17.213Z,0.65
2023-03-03T05:36:44.568Z,0.64
2023-03-03T05:39:11.450Z,0.65
2023-03-03T05:41:38.970Z,0.66
2023-03-03T05:44:05.755Z,0.66
2023-03-03T05:46:33.066Z,0.69
2023-03-03T05:49:01.313Z,0.70
2023-03-03T05:51:28.173Z,0.73
2023-03-03T05:53:56.610Z,0.76
2023-03-03T05:56:23.947Z,0.76
2023-03-03T05:58:51.565Z,0.73
2023-03-03T06:01:25.035Z,0.73
2023-03-03T06:03:52.190Z,0.73
2023-03-03T06:06:21.664Z,0.73
2023-03-03T06:08:48.966Z,0.76
2023-03-03T06:11:16.765Z,0.79
2023-03-03T06:13:43.626Z,0.85
2023-03-03T06:16:10.738Z,0.91
2023-03-03T06:18:38.067Z,0.93
2023-03-03T06:21:05.542Z,0.97
2023-03-03T06:23:37.779Z,1.00
2023-03-03T06:26:05.475Z,1.03
2023-03-03T06:28:32.501Z,1.06
2023-03-03T06:31:17.602Z,1.05
2023-03-03T06:33:44.756Z,1.05
2023-03-03T06:36:21.538Z,1.05
2023-03-03T06:38:48.333Z,1.06
2023-03-03T06:41:15.513Z,1.03
2023-03-03T06:43:42.842Z,0.98
2023-03-03T06:46:10.093Z,0.94
2023-03-03T06:48:37.162Z,0.91
2023-03-03T06:51:20.088Z,0.86
2023-03-03T06:53:48.678Z,0.81
2023-03-03T06:56:16.139Z,0.79
2023-03-03T06:58:43.301Z,0.80
2023-03-03T07:01:17.214Z,0.79
2023-03-03T07:03:45.536Z,0.81
2023-03-03T07:06:22.955Z,0.84
2023-03-03T07:08:50.696Z,0.87
2023-03-03T07:11:22.964Z,0.86
2023-03-03T07:13:52.115Z,0.83
2023-03-03T07:16:24.593Z,0.82
2023-03-03T07:19:05.444Z,0.83
2023-03-03T07:21:35.574Z,0.88
2023-03-03T07:24:16.406Z,0.94
2023-03-03T07:26:43.054Z,0.96
2023-03-03T07:29:30.477Z,0.96
2023-03-03T07:31:59.035Z,1.00
2023-03-03T07:34:41.915Z,1.08
2023-03-03T07:37:25.552Z,1.16
2023-03-03T07:39:55.388Z,1.23
2023-03-03T07:42:27.701Z,1.27
2023-03-03T07:45:00.410Z,1.34
2023-03-03T07:47:30.644Z,1.39
2023-03-03T07:50:01.352Z,1.38
2023-03-03T07:52:42.585Z,1.34
2023-03-03T07:55:31.642Z,1.32
2023-03-03T07:58:16.517Z,1.29
2023-03-03T08:00:43.536Z,1.26
2023-03-03T08:03:17.821Z,1.25
2023-03-03T08:05:52.025Z,1.27
2023-03-03T08:08:38.535Z,1.34
2023-03-03T08:11:06.119Z,1.43
2023-03-03T08:13:38.177Z,1.50
2023-03-03T08:16:11.003Z,1.51
2023-03-03T08:18:48.015Z,1.51
2023-03-03T08:21:20.855Z,1.50
2023-03-03T08:23:49.259Z,1.50
2023-03-03T08:26:19.733Z,1.50
2023-03-03T08:28:47.438Z,1.52
2023-03-03T08:31:27.998Z,1.57
2023-03-03T08:34:01.658Z,1.64
2023-03-03T08:36:28.810Z,1.70
2023-03-03T08:38:56.687Z,1.75
2023-03-03T08:41:23.450Z,1.77
2023-03-03T08:43:50.686Z,1.79
2023-03-03T08:46:21.046Z,1.80
2023-03-03T08:48:48.023Z,1.84
2023-03-03T08:51:15.252Z,1.88
2023-03-03T08:53:42.001Z,1.91
2023-03-03T08:56:08.865Z,1.92
2023-03-03T08:58:36.680Z,1.94
2023-03-03T09:01:04.400Z,1.97
2023-03-03T09:03:31.410Z,2.01
2023-03-03T09:05:58.658Z,2.07
2023-03-03T09:08:25.400Z,2.04
2023-03-03T09:10:52.714Z,2.12
2023-03-03T09:13:20.456Z,2.21
2023-03-03T09:15:49.735Z,2.31
2023-03-03T09:18:31.636Z,2.40
2023-03-03T09:20:58.265Z,2.49
2023-03-03T09:23:52.263Z,2.51
2023-03-03T09:26:31.846Z,2.52
2023-03-03T09:29:19.537Z,2.58
2023-03-03T09:31:51.829Z,2.66
2023-03-03T09:34:36.013Z,2.77
2023-03-03T09:37:21.890Z,2.86
2023-03-03T09:39:56.280Z,2.92
2023-03-03T09:43:11.532Z,2.94
2023-03-03T09:45:44.387Z,2.87
2023-03-03T09:48:26.459Z,2.87
2023-03-03T09:51:09.066Z,2.85
2023-03-03T09:54:04.247Z,2.81
2023-03-03T09:56:36.264Z,2.78
2023-03-03T09:59:35.464Z,2.81
2023-03-03T10:02:27.274Z,2.82
2023-03-03T10:05:14.418Z,2.77
2023-03-03T10:08:13.128Z,2.77
2023-03-03T10:10:51.342Z,2.84
2023-03-03T10:13:52.832Z,2.94
2023-03-03T10:16:39.212Z,2.99
2023-03-03T10:19:23.488Z,3.08
2023-03-03T10:22:12.713Z,3.21
2023-03-03T10:25:02.634Z,3.29
2023-03-03T10:28:04.249Z,3.37
2023-03-03T10:31:04.132Z,3.38
2023-03-03T10:34:01.821Z,3.41
2023-03-03T10:36:37.427Z,3.47
2023-03-03T10:39:26.050Z,3.55
2023-03-03T10:42:21.218Z,3.63
2023-03-03T10:45:12.981Z,3.77
2023-03-03T10:48:03.053Z,3.86
2023-03-03T10:50:41.619Z,3.96
2023-03-03T10:53:19.262Z,4.07
2023-03-03T10:56:03.929Z,4.13
2023-03-03T10:58:42.602Z,4.18
2023-03-03T11:01:16.094Z,4.22
2023-03-03T11:03:55.656Z,4.25
2023-03-03T11:06:35.602Z,4.19
2023-03-03T11:09:44.222Z,4.07
2023-03-03T11:12:32.001Z,4.01
2023-03-03T11:15:20.948Z,4.11
2023-03-03T11:18:15.659Z,4.30
2023-03-03T11:21:18.462Z,4.40
2023-03-03T11:24:13.601Z,4.51
2023-03-03T11:27:02.396Z,4.62
2023-03-03T11:29:59.302Z,4.77
2023-03-03T11:32:43.692Z,4.84
2023-03-03T11:35:43.239Z,4.93
2023-03-03T11:38:20.044Z,4.99
2023-03-03T11:40:54.208Z,5.23
2023-03-03T11:43:36.904Z,5.53
2023-03-03T11:46:18.750Z,5.73
2023-03-03T11:49:02.859Z,5.87
2023-03-03T11:52:03.098Z,5.92
2023-03-03T11:55:07.813Z,6.02
2023-03-03T11:58:14.806Z,6.08
2023-03-03T12:00:45.592Z,6.29
2023-03-03T12:03:22.221Z,6.23
2023-03-03T12:06:02.779Z,6.30
2023-03-03T12:08:52.241Z,6.73
2023-03-03T12:11:53.955Z,6.98
2023-03-03T12:14:41.969Z,7.34
2023-03-03T12:17:45.432Z,7.55
2023-03-03T12:20:34.851Z,7.99
2023-03-03T12:23:23.536Z,8.39
2023-03-03T12:25:58.376Z,8.44
2023-03-03T12:28:50.293Z,8.35
2023-03-03T12:32:14.066Z,8.29
2023-03-03T12:34:50.178Z,9.13
2023-03-03T12:37:38.435Z,10.07
2023-03-03T12:40:16.663Z,11.09
2023-03-03T12:42:52.158Z,11.79
2023-03-03T12:45:34.364Z,12.06
2023-03-03T12:48:03.228Z,12.39
2023-03-03T12:50:56.070Z,12.71
2023-03-03T12:53:50.443Z,12.99
2023-03-03T12:56:35.562Z,13.57
2023-03-03T12:59:11.468Z,13.52
2023-03-03T13:01:59.409Z,12.70
2023-03-03T13:04:29.337Z,12.62
2023-03-03T13:07:18.917Z,13.04
2023-03-03T13:09:53.992Z,13.74
2023-03-03T13:12:32.685Z,14.55
2023-03-03T13:15:16.627Z,15.47
2023-03-03T13:17:57.104Z,15.07
2023-03-03T13:20:45.083Z,13.93
2023-03-03T13:23:41.280Z,12.79
2023-03-03T13:26:26.307Z,11.86
2023-03-03T13:28:55.979Z,11.56
2023-03-03T13:31:26.496Z,11.62
2023-03-03T13:33:58.813Z,11.26
2023-03-03T13:36:34.734Z,10.56
2023-03-03T13:39:14.613Z,10.04
2023-03-03T13:41:46.836Z,9.78
2023-03-03T13:44:26.811Z,9.75
2023-03-03T13:47:31.546Z,10.60
2023-03-03T13:50:30.619Z,12.28
2023-03-03T13:53:33.209Z,13.50
2023-03-03T13:56:22.884Z,14.21
2023-03-03T13:58:56.213Z,13.82
2023-03-03T14:02:04.965Z,13.12
2023-03-03T14:04:42.286Z,11.95
2023-03-03T14:07:14.731Z,11.10
2023-03-03T14:09:59.806Z,10.49
2023-03-03T14:12:38.978Z,9.94
2023-03-03T14:15:23.809Z,9.82
2023-03-03T14:18:28.204Z,9.75
2023-03-03T14:21:00.554Z,9.62
2023-03-03T14:23:49.397Z,9.44
2023-03-03T14:26:16.392Z,9.33
2023-03-03T14:28:48.183Z,8.95
2023-03-03T14:31:22.321Z,8.45
2023-03-03T14:34:09.701Z,8.06
2023-03-03T14:36:40.112Z,7.68
2023-03-03T14:39:34.534Z,7.30
2023-03-03T14:42:05.531Z,6.87
2023-03-03T14:44:54.722Z,6.63
2023-03-03T14:47:26.855Z,6.29
2023-03-03T14:49:59.558Z,6.21
2023-03-03T14:52:33.009Z,6.20
2023-03-03T14:55:05.243Z,6.03
2023-03-03T14:57:46.940Z,5.89
2023-03-03T15:00:13.900Z,5.83
2023-03-03T15:02:58.350Z,5.97
2023-03-03T15:05:35.033Z,6.16
2023-03-03T15:08:04.487Z,6.80
2023-03-03T15:10:42.854Z,7.93
2023-03-03T15:13:38.667Z,8.10
2023-03-03T15:16:22.698Z,8.45
2023-03-03T15:19:01.322Z,8.18
2023-03-03T15:21:33.140Z,7.71
2023-03-03T15:24:17.822Z,7.40
2023-03-03T15:26:51.966Z,7.31
2023-03-03T15:29:21.333Z,7.72
2023-03-03T15:31:47.954Z,7.97
2023-03-03T15:34:26.530Z,8.07
2023-03-03T15:37:08.037Z,8.11
2023-03-03T15:39:56.799Z,8.45
2023-03-03T15:42:55.321Z,8.59
2023-03-03T15:45:40.206Z,8.29
2023-03-03T15:48:30.723Z,8.16
2023-03-03T15:51:10.221Z,8.51
2023-03-03T15:53:43.054Z,8.19
2023-03-03T15:56:38.712Z,8.05
2023-03-03T15:59:27.065Z,8.10
2023-03-03T16:01:59.776Z,8.52
2023-03-03T16:04:34.645Z,8.83
2023-03-03T16:07:26.733Z,8.99
2023-03-03T16:10:28.365Z,9.06
2023-03-03T16:13:23.505Z,8.92
2023-03-03T16:15:55.135Z,8.58
2023-03-03T16:18:53.474Z,8.09
2023-03-03T16:21:26.103Z,7.41
2023-03-03T16:24:01.937Z,6.79
2023-03-03T16:26:57.906Z,6.45
2023-03-03T16:29:46.932Z,6.08
2023-03-03T16:32:27.009Z,5.79
2023-03-03T16:35:18.932Z,5.40
2023-03-03T16:38:05.661Z,4.95
2023-03-03T16:40:55.515Z,4.52
2023-03-03T16:43:44.112Z,4.33
2023-03-03T16:46:29.022Z,4.25
2023-03-03T16:49:25.177Z,4.10
2023-03-03T16:51:51.973Z,3.94
2023-03-03T16:54:34.399Z,3.74
2023-03-03T16:57:29.007Z,3.56
2023-03-03T17:00:21.281Z,3.35
2023-03-03T17:03:10.774Z,3.16
2023-03-03T17:05:43.698Z,3.02
2023-03-03T17:08:19.433Z,2.87
2023-03-03T17:10:51.337Z,2.75
2023-03-03T17:13:53.268Z,2.64
2023-03-03T17:16:46.001Z,2.54
2023-03-03T17:19:44.109Z,2.45
2023-03-03T17:22:28.984Z,2.38
2023-03-03T17:25:04.981Z,2.31
2023-03-03T17:27:55.104Z,2.27
2023-03-03T17:30:50.801Z,2.23
2023-03-03T17:33:26.242Z,2.23
2023-03-03T17:36:14.424Z,2.24
2023-03-03T17:39:17.105Z,2.27
2023-03-03T17:41:58.434Z,2.32
2023-03-03T17:44:41.243Z,2.36
2023-03-03T17:47:13.516Z,2.40
2023-03-03T17:50:17.501Z,2.42
2023-03-03T17:53:21.867Z,2.44
2023-03-03T17:56:02.908Z,2.48
2023-03-03T17:58:42.830Z,2.52
2023-03-03T18:01:30.782Z,2.55
2023-03-03T18:04:35.392Z,2.59
2023-03-03T18:07:21.476Z,2.61
2023-03-03T18:10:06.749Z,2.65
2023-03-03T18:12:45.459Z,2.68
2023-03-03T18:15:12.306Z,2.71
2023-03-03T18:18:03.190Z,2.71
2023-03-03T18:21:07.860Z,2.70
2023-03-03T18:23:42.886Z,2.70
2023-03-03T18:26:39.975Z,2.71
2023-03-03T18:29:24.273Z,2.72
2023-03-03T18:31:53.972Z,2.73
2023-03-03T18:34:20.762Z,2.75
2023-03-03T18:37:02.794Z,2.76
2023-03-03T18:39:49.214Z,2.79
2023-03-03T18:42:15.962Z,2.82
2023-03-03T18:44:50.348Z,2.84
2023-03-03T18:47:17.726Z,2.87
2023-03-03T18:49:49.293Z,2.87
2023-03-03T18:52:37.017Z,2.91
2023-03-03T18:55:12.296Z,2.93
2023-03-03T18:57:39.649Z,2.97
2023-03-03T19:00:22.305Z,2.98
2023-03-03T19:02:57.196Z,3.02
2023-03-03T19:05:34.570Z,3.01
2023-03-03T19:08:22.486Z,3.03
2023-03-03T19:11:29.177Z,3.05
2023-03-03T19:14:17.121Z,3.08
2023-03-03T19:16:45.270Z,3.09
2023-03-03T19:19:14.953Z,3.11
2023-03-03T19:21:49.298Z,3.12
2023-03-03T19:24:27.551Z,3.15
2023-03-03T19:27:22.035Z,3.16
2023-03-03T19:30:07.514Z,3.18
2023-03-03T19:33:10.064Z,3.18
2023-03-03T19:35:54.572Z,3.17
2023-03-03T19:38:31.335Z,3.18
2023-03-03T19:41:09.592Z,3.20
2023-03-03T19:43:47.592Z,3.22
2023-03-03T19:46:45.440Z,3.24
2023-03-03T19:49:34.214Z,3.30
2023-03-03T19:52:13.408Z,3.33
2023-03-03T19:54:44.863Z,3.35
2023-03-03T19:57:25.211Z,3.35
2023-03-03T20:00:05.605Z,3.34
2023-03-03T20:02:39.620Z,3.36
2023-03-03T20:05:25.035Z,3.35
2023-03-03T20:08:11.324Z,3.37
2023-03-03T20:10:41.036Z,3.39
2023-03-03T20:13:39.008Z,3.42
2023-03-03T20:16:24.068Z,3.45
2023-03-03T20:19:06.313Z,3.46
2023-03-03T20:21:52.239Z,3.48
2023-03-03T20:24:32.120Z,3.50
2023-03-03T20:27:04.721Z,3.53
2023-03-03T20:29:45.727Z,3.57
2023-03-03T20:32:19.379Z,3.60
2023-03-03T20:35:21.082Z,3.67
2023-03-03T20:38:06.506Z,3.75
2023-03-03T20:41:11.001Z,3.80
2023-03-03T20:44:22.584Z,3.86
2023-03-03T20:47:32.328Z,3.92
2023-03-03T20:50:23.759Z,3.99
2023-03-03T20:53:13.922Z,4.02
2023-03-03T20:56:00.231Z,4.05
2023-03-03T20:58:40.262Z,4.09
2023-03-03T21:01:12.250Z,4.11
2023-03-03T21:03:42.402Z,4.13
2023-03-03T21:06:15.214Z,4.14
2023-03-03T21:08:56.997Z,4.16
2023-03-03T21:11:35.573Z,4.17
2023-03-03T21:14:21.606Z,4.18
2023-03-03T21:16:50.696Z,4.20
2023-03-03T21:19:35.062Z,4.23
2023-03-03T21:22:03.445Z,4.25
2023-03-03T21:24:49.973Z,4.25
2023-03-03T21:27:34.467Z,4.27
2023-03-03T21:30:09.281Z,4.27
2023-03-03T21:32:40.528Z,4.27
2023-03-03T21:35:11.214Z,4.26
2023-03-03T21:37:53.117Z,4.26
2023-03-03T21:40:30.711Z,4.24
2023-03-03T21:42:59.921Z,4.20
2023-03-03T21:45:27.326Z,4.14
2023-03-03T21:47:55.114Z,4.12
2023-03-03T21:50:22.531Z,4.09
2023-03-03T21:52:49.335Z,4.08
2023-03-03T21:55:16.626Z,4.04
2023-03-03T21:57:46.321Z,4.03
2023-03-03T22:00:13.546Z,4.01
2023-03-03T22:02:43.268Z,4.02
2023-03-03T22:05:10.410Z,4.04
2023-03-03T22:07:37.374Z,4.04
2023-03-03T22:10:04.357Z,4.02
2023-03-03T22:12:31.313Z,4.03
2023-03-03T22:14:58.236Z,4.04
2023-03-03T22:17:25.586Z,4.07
2023-03-03T22:19:52.899Z,4.08
2023-03-03T22:22:22.157Z,4.12
2023-03-03T22:24:49.970Z,4.14
2023-03-03T22:27:19.104Z,4.12
2023-03-03T22:29:46.153Z,4.12
2023-03-03T22:32:16.591Z,4.12
2023-03-03T22:34:43.904Z,4.11
2023-03-03T22:37:13.800Z,4.13
2023-03-03T22:39:40.882Z,4.13
2023-03-03T22:42:10.136Z,4.10
2023-03-03T22:44:37.494Z,4.07
2023-03-03T22:47:04.569Z,4.05
2023-03-03T22:49:33.983Z,3.99
2023-03-03T22:52:03.586Z,3.96
2023-03-03T22:54:30.832Z,3.93
2023-03-03T22:56:57.786Z,3.89
2023-03-03T22:59:31.150Z,3.86
2023-03-03T23:02:01.188Z,3.79
2023-03-03T23:04:28.554Z,3.74
2023-03-03T23:06:57.325Z,3.74
2023-03-03T23:09:26.566Z,3.71
2023-03-03T23:11:53.552Z,3.71
2023-03-03T23:14:23.377Z,3.71
2023-03-03T23:16:50.542Z,3.71
2023-03-03T23:19:17.759Z,3.70
2023-03-03T23:21:46.830Z,3.70
2023-03-03T23:24:16.898Z,3.71
2023-03-03T23:26:46.946Z,3.73
2023-03-03T23:29:14.610Z,3.74
2023-03-03T23:31:41.972Z,3.76
2023-03-03T23:34:09.067Z,3.78
2023-03-03T23:36:52.724Z,3.79
2023-03-03T23:39:19.928Z,3.80
2023-03-03T23:41:47.264Z,3.81
2023-03-03T23:44:18.875Z,3.82
2023-03-03T23:46:48.145Z,3.82
2023-03-03T23:49:14.970Z,3.86
2023-03-03T23:51:44.916Z,3.87
2023-03-03T23:54:14.220Z,3.90
2023-03-03T23:56:41.171Z,3.90
2023-03-03T23:59:08.474Z,3.92
